createdAt,value
2018-04-28T00:00:28.195Z,0
2018-04-28T00:01:08.686Z,0
2018-04-28T00:01:49.225Z,0
2018-04-28T00:02:29.758Z,0
2018-04-28T00:03:10.273Z,0
2018-04-28T00:03:50.807Z,0
2018-04-28T00:04:31.324Z,0
2018-04-28T00:05:11.843Z,0
2018-04-28T00:05:52.367Z,0
2018-04-28T00:06:32.893Z,0
2018-04-28T00:07:13.427Z,0
2018-04-28T00:07:53.988Z,0
2018-04-28T00:08:34.458Z,0
2018-04-28T00:09:14.982Z,0
2018-04-28T00:09:55.515Z,0
2018-04-28T00:10:36.029Z,0
2018-04-28T00:11:16.558Z,0
2018-04-28T00:11:57.079Z,0
2018-04-28T00:12:37.606Z,0
2018-04-28T00:13:18.120Z,0
2018-04-28T00:13:58.644Z,0
2018-04-28T00:14:39.176Z,0
2018-04-28T00:15:19.714Z,0
2018-04-28T00:16:00.213Z,0
2018-04-28T00:16:40.747Z,0
2018-04-28T00:17:21.288Z,0
2018-04-28T00:18:01.805Z,0
2018-04-28T00:18:42.325Z,0
2018-04-28T00:19:22.840Z,0
2018-04-28T00:20:03.369Z,0
2018-04-28T00:20:43.923Z,0
2018-04-28T00:21:24.409Z,0
2018-04-28T00:22:04.940Z,0
2018-04-28T00:22:45.459Z,0
2018-04-28T00:23:25.980Z,0
2018-04-28T00:24:06.506Z,0
2018-04-28T00:24:47.032Z,0
2018-04-28T00:25:27.548Z,0
2018-04-28T00:26:08.064Z,0
2018-04-28T00:26:48.581Z,0
2018-04-28T00:27:29.097Z,0
2018-04-28T00:28:09.636Z,0
2018-04-28T00:28:50.147Z,0
2018-04-28T00:29:30.670Z,0
2018-04-28T00:30:11.190Z,0
2018-04-28T00:30:51.705Z,0
2018-04-28T00:31:32.221Z,0
2018-04-28T00:32:12.735Z,0
2018-04-28T00:32:53.256Z,0
2018-04-28T00:33:33.783Z,0
2018-04-28T00:34:14.305Z,0
2018-04-28T00:34:54.826Z,0
2018-04-28T00:35:35.348Z,0
2018-04-28T00:36:15.876Z,0
2018-04-28T00:36:56.393Z,0
2018-04-28T00:37:36.919Z,0
2018-04-28T00:38:17.444Z,0
2018-04-28T00:38:57.964Z,0
2018-04-28T00:39:38.483Z,0
2018-04-28T00:40:19.011Z,0
2018-04-28T00:40:59.525Z,0
2018-04-28T00:41:40.049Z,0
2018-04-28T00:42:20.580Z,0
2018-04-28T00:43:01.095Z,0
2018-04-28T00:43:41.619Z,0
2018-04-28T00:44:22.154Z,0
2018-04-28T00:45:02.660Z,0
2018-04-28T00:45:43.176Z,0
2018-04-28T00:46:23.705Z,0
2018-04-28T00:47:04.206Z,0
2018-04-28T00:47:44.725Z,0
2018-04-28T00:48:25.257Z,0
2018-04-28T00:49:05.782Z,0
2018-04-28T00:49:46.306Z,0
2018-04-28T00:50:26.842Z,0
2018-04-28T00:51:07.391Z,0
2018-04-28T00:51:47.930Z,0
2018-04-28T00:52:28.454Z,0
2018-04-28T00:53:08.975Z,0
2018-04-28T00:53:49.500Z,0
2018-04-28T00:54:30.027Z,0
2018-04-28T00:55:10.535Z,0
2018-04-28T00:55:51.058Z,0
2018-04-28T00:56:31.579Z,0
2018-04-28T00:57:12.101Z,0
2018-04-28T00:57:52.606Z,0
2018-04-28T00:58:33.129Z,0
2018-04-28T00:59:13.650Z,0
2018-04-28T00:59:54.175Z,0
2018-04-28T01:00:34.690Z,0
2018-04-28T01:01:15.208Z,0
2018-04-28T01:01:55.728Z,0
2018-04-28T01:02:36.258Z,0
2018-04-28T01:03:16.782Z,0
2018-04-28T01:03:57.315Z,0
2018-04-28T01:04:37.832Z,0
2018-04-28T01:05:18.356Z,0
2018-04-28T01:05:58.895Z,0
2018-04-28T01:06:39.425Z,0
2018-04-28T01:07:19.938Z,0
2018-04-28T01:08:00.455Z,0
2018-04-28T01:08:40.984Z,0
2018-04-28T01:09:21.516Z,0
2018-04-28T01:10:02.033Z,0
2018-04-28T01:10:42.556Z,0
2018-04-28T01:11:23.074Z,0
2018-04-28T01:12:03.585Z,0
2018-04-28T01:12:44.108Z,0
2018-04-28T01:13:24.636Z,0
2018-04-28T01:14:05.160Z,0
2018-04-28T01:14:45.686Z,0
2018-04-28T01:15:26.212Z,0
2018-04-28T01:16:06.729Z,0
2018-04-28T01:16:47.267Z,0
2018-04-28T01:17:27.788Z,0
2018-04-28T01:18:08.301Z,0
2018-04-28T01:18:48.833Z,0
2018-04-28T01:19:29.350Z,0
2018-04-28T01:20:09.884Z,0
2018-04-28T01:20:50.400Z,0
2018-04-28T01:21:30.933Z,0
2018-04-28T01:22:11.456Z,0
2018-04-28T01:22:51.971Z,0
2018-04-28T01:23:32.499Z,0
2018-04-28T01:24:13.025Z,0
2018-04-28T01:24:53.530Z,0
2018-04-28T01:25:34.047Z,0
2018-04-28T01:26:14.581Z,0
2018-04-28T01:26:55.101Z,0
2018-04-28T01:27:35.615Z,0
2018-04-28T01:28:16.134Z,0
2018-04-28T01:28:56.636Z,0
2018-04-28T01:29:37.154Z,0
2018-04-28T01:30:17.685Z,0
2018-04-28T01:30:58.212Z,0
2018-04-28T01:31:38.730Z,0
2018-04-28T01:32:19.261Z,0
2018-04-28T01:32:59.784Z,0
2018-04-28T01:33:40.296Z,0
2018-04-28T01:34:20.812Z,0
2018-04-28T01:35:01.332Z,0
2018-04-28T01:35:41.850Z,0
2018-04-28T01:36:22.365Z,0
2018-04-28T01:37:02.891Z,0
2018-04-28T01:37:43.404Z,0
2018-04-28T01:38:23.928Z,0
2018-04-28T01:39:04.437Z,0
2018-04-28T01:39:44.956Z,0
2018-04-28T01:40:25.468Z,0
2018-04-28T01:41:05.986Z,0
2018-04-28T01:41:46.511Z,0
2018-04-28T01:42:27.024Z,0
2018-04-28T01:43:07.552Z,0
2018-04-28T01:43:48.073Z,0
2018-04-28T01:44:28.583Z,0
2018-04-28T01:45:09.122Z,0
2018-04-28T01:45:49.643Z,0
2018-04-28T01:46:30.162Z,0
2018-04-28T01:47:10.679Z,0
2018-04-28T01:47:52.140Z,0
2018-04-28T01:48:31.738Z,0
2018-04-28T01:49:12.255Z,0
2018-04-28T01:49:52.766Z,0
2018-04-28T01:50:33.273Z,0
2018-04-28T01:51:13.799Z,0
2018-04-28T01:51:54.319Z,0
2018-04-28T01:52:34.838Z,0
2018-04-28T01:53:15.356Z,0
2018-04-28T01:53:55.874Z,0
2018-04-28T01:54:36.408Z,0
2018-04-28T01:55:16.924Z,0
2018-04-28T01:55:57.451Z,0
2018-04-28T01:56:37.969Z,0
2018-04-28T01:57:18.488Z,0
2018-04-28T01:57:59.020Z,0
2018-04-28T01:58:39.544Z,0
2018-04-28T01:59:20.058Z,0
2018-04-28T02:00:00.577Z,0
2018-04-28T02:00:41.090Z,0
2018-04-28T02:01:21.614Z,0
2018-04-28T02:02:02.143Z,0
2018-04-28T02:02:42.674Z,0
2018-04-28T02:03:23.196Z,0
2018-04-28T02:04:03.707Z,0
2018-04-28T02:04:44.227Z,0
2018-04-28T02:05:24.749Z,0
2018-04-28T02:06:05.265Z,0
2018-04-28T02:06:45.784Z,0
2018-04-28T02:07:26.296Z,0
2018-04-28T02:08:06.830Z,0
2018-04-28T02:08:47.515Z,0
2018-04-28T02:09:28.044Z,0
2018-04-28T02:10:08.574Z,0
2018-04-28T02:10:49.076Z,0
2018-04-28T02:11:29.602Z,0
2018-04-28T02:12:10.126Z,0
2018-04-28T02:12:50.637Z,0
2018-04-28T02:13:31.179Z,0
2018-04-28T02:14:11.697Z,0
2018-04-28T02:14:52.212Z,0
2018-04-28T02:15:32.732Z,0
2018-04-28T02:16:13.251Z,0
2018-04-28T02:16:53.764Z,0
2018-04-28T02:17:34.283Z,0
2018-04-28T02:18:14.809Z,0
2018-04-28T02:18:55.324Z,0
2018-04-28T02:19:35.863Z,0
2018-04-28T02:20:16.376Z,0
2018-04-28T02:20:56.901Z,0
2018-04-28T02:21:37.421Z,0
2018-04-28T02:22:17.939Z,0
2018-04-28T02:22:58.448Z,0
2018-04-28T02:23:38.981Z,0
2018-04-28T02:24:19.491Z,0
2018-04-28T02:25:00.020Z,0
2018-04-28T02:25:40.540Z,0
2018-04-28T02:26:21.062Z,0
2018-04-28T02:27:01.581Z,0
2018-04-28T02:27:42.111Z,0
2018-04-28T02:28:22.624Z,0
2018-04-28T02:29:03.136Z,0
2018-04-28T02:29:43.664Z,0
2018-04-28T02:30:24.187Z,0
2018-04-28T02:31:04.730Z,0
2018-04-28T02:31:45.245Z,0
2018-04-28T02:32:25.756Z,0
2018-04-28T02:33:06.279Z,0
2018-04-28T02:33:46.795Z,0
2018-04-28T02:34:27.308Z,0
2018-04-28T02:35:07.823Z,0
2018-04-28T02:35:48.328Z,0
2018-04-28T02:36:28.848Z,0
2018-04-28T02:37:09.380Z,0
2018-04-28T02:37:49.910Z,0
2018-04-28T02:38:30.433Z,0
2018-04-28T02:39:10.945Z,0
2018-04-28T02:39:51.475Z,0
2018-04-28T02:40:31.994Z,0
2018-04-28T02:41:12.509Z,0
2018-04-28T02:41:53.030Z,0
2018-04-28T02:42:33.546Z,0
2018-04-28T02:43:14.056Z,0
2018-04-28T02:43:54.582Z,0
2018-04-28T02:44:35.090Z,0
2018-04-28T02:45:15.615Z,0
2018-04-28T02:45:56.148Z,0
2018-04-28T02:46:36.677Z,0
2018-04-28T02:47:17.217Z,0
2018-04-28T02:47:57.729Z,0
2018-04-28T02:48:38.260Z,0
2018-04-28T02:49:18.789Z,0
2018-04-28T02:49:59.309Z,0
2018-04-28T02:50:39.825Z,0
2018-04-28T02:51:20.347Z,0
2018-04-28T02:52:00.859Z,0
2018-04-28T02:52:41.378Z,0
2018-04-28T02:53:21.912Z,0
2018-04-28T02:54:02.423Z,0
2018-04-28T02:54:42.937Z,0
2018-04-28T02:55:23.467Z,0
2018-04-28T02:56:03.979Z,0
2018-04-28T02:56:44.495Z,0
2018-04-28T02:57:25.017Z,0
2018-04-28T02:58:05.538Z,0
2018-04-28T02:58:46.053Z,0
2018-04-28T02:59:26.569Z,0
2018-04-28T03:00:07.086Z,0
2018-04-28T03:00:47.605Z,0
2018-04-28T03:01:28.121Z,0
2018-04-28T03:02:08.634Z,0
2018-04-28T03:02:49.163Z,0
2018-04-28T03:03:29.682Z,0
2018-04-28T03:04:10.204Z,0
2018-04-28T03:04:50.737Z,0
2018-04-28T03:05:31.253Z,0
2018-04-28T03:06:11.771Z,0
2018-04-28T03:06:52.283Z,0
2018-04-28T03:07:32.799Z,0
2018-04-28T03:08:13.337Z,0
2018-04-28T03:08:53.840Z,0
2018-04-28T03:09:34.359Z,0
2018-04-28T03:10:14.877Z,0
2018-04-28T03:10:55.403Z,0
2018-04-28T03:11:35.923Z,0
2018-04-28T03:12:16.449Z,0
2018-04-28T03:12:56.970Z,0
2018-04-28T03:13:37.502Z,0
2018-04-28T03:14:18.017Z,0
2018-04-28T03:14:58.544Z,0
2018-04-28T03:15:39.064Z,0
2018-04-28T03:16:19.577Z,0
2018-04-28T03:17:00.096Z,0
2018-04-28T03:17:40.618Z,0
2018-04-28T03:18:21.133Z,0
2018-04-28T03:19:01.657Z,0
2018-04-28T03:19:42.169Z,0
2018-04-28T03:20:22.705Z,0
2018-04-28T03:21:03.210Z,0
2018-04-28T03:21:43.734Z,0
2018-04-28T03:22:24.272Z,0
2018-04-28T03:23:04.787Z,0
2018-04-28T03:23:45.313Z,0
2018-04-28T03:24:25.911Z,0
2018-04-28T03:25:06.363Z,0
2018-04-28T03:25:46.867Z,0
2018-04-28T03:26:27.388Z,0
2018-04-28T03:27:07.911Z,0
2018-04-28T03:27:48.436Z,0
2018-04-28T03:28:28.954Z,0
2018-04-28T03:29:09.476Z,0
2018-04-28T03:29:50.013Z,0
2018-04-28T03:30:30.509Z,0
2018-04-28T03:31:11.031Z,0
2018-04-28T03:31:51.561Z,0
2018-04-28T03:32:32.075Z,0
2018-04-28T03:33:12.583Z,0
2018-04-28T03:33:53.129Z,0
2018-04-28T03:34:33.649Z,0
2018-04-28T03:35:14.167Z,0
2018-04-28T03:35:54.697Z,0
2018-04-28T03:36:35.216Z,0
2018-04-28T03:37:15.737Z,0
2018-04-28T03:37:56.245Z,0
2018-04-28T03:38:36.764Z,0
2018-04-28T03:39:17.284Z,0
2018-04-28T03:39:57.804Z,0
2018-04-28T03:40:38.332Z,0
2018-04-28T03:41:18.856Z,0
2018-04-28T03:41:59.358Z,0
2018-04-28T03:42:39.878Z,0
2018-04-28T03:43:20.409Z,0
2018-04-28T03:44:00.940Z,0
2018-04-28T03:44:41.454Z,0
2018-04-28T03:45:21.969Z,0
2018-04-28T03:46:02.503Z,0
2018-04-28T03:46:43.029Z,0
2018-04-28T03:47:23.552Z,0
2018-04-28T03:48:04.070Z,0
2018-04-28T03:48:44.605Z,0
2018-04-28T03:49:25.129Z,0
2018-04-28T03:50:05.652Z,0
2018-04-28T03:50:46.163Z,0
2018-04-28T03:51:26.712Z,0
2018-04-28T03:52:07.240Z,0
2018-04-28T03:52:47.778Z,0
2018-04-28T03:53:28.360Z,0
2018-04-28T03:54:08.813Z,0
2018-04-28T03:54:49.341Z,0
2018-04-28T03:55:29.864Z,0
2018-04-28T03:56:10.371Z,0
2018-04-28T03:56:50.904Z,0
2018-04-28T03:57:31.400Z,0
2018-04-28T03:58:11.907Z,0
2018-04-28T03:58:52.424Z,0
2018-04-28T03:59:32.942Z,0
2018-04-28T04:00:13.476Z,0
2018-04-28T04:00:53.993Z,0
2018-04-28T04:01:34.517Z,0
2018-04-28T04:02:15.046Z,0
2018-04-28T04:02:55.560Z,0
2018-04-28T04:03:36.082Z,0
2018-04-28T04:04:16.606Z,0
2018-04-28T04:04:57.129Z,0
2018-04-28T04:05:37.655Z,0
2018-04-28T04:06:18.173Z,0
2018-04-28T04:06:58.688Z,0
2018-04-28T04:07:39.206Z,0
2018-04-28T04:08:19.722Z,0
2018-04-28T04:09:00.257Z,0
2018-04-28T04:09:40.771Z,0
2018-04-28T04:10:21.291Z,0
2018-04-28T04:11:01.804Z,0
2018-04-28T04:11:42.317Z,0
2018-04-28T04:12:22.849Z,0
2018-04-28T04:13:03.345Z,0
2018-04-28T04:13:43.875Z,0
2018-04-28T04:14:24.400Z,0
2018-04-28T04:15:04.911Z,0
2018-04-28T04:15:45.442Z,0
2018-04-28T04:16:25.960Z,0
2018-04-28T04:17:06.473Z,5
2018-04-28T04:17:46.992Z,5
2018-04-28T04:18:27.520Z,5
2018-04-28T04:19:08.042Z,5
2018-04-28T04:19:48.563Z,5
2018-04-28T04:20:29.079Z,5
2018-04-28T04:21:09.612Z,5
2018-04-28T04:21:50.114Z,5
2018-04-28T04:22:30.633Z,5
2018-04-28T04:23:11.153Z,5
2018-04-28T04:23:51.669Z,5
2018-04-28T04:24:32.178Z,5
2018-04-28T04:25:12.704Z,5
2018-04-28T04:25:53.229Z,5
2018-04-28T04:26:33.838Z,5
2018-04-28T04:27:14.287Z,10
2018-04-28T04:27:54.806Z,10
2018-04-28T04:28:35.323Z,10
2018-04-28T04:29:15.853Z,10
2018-04-28T04:29:56.378Z,10
2018-04-28T04:30:36.900Z,10
2018-04-28T04:31:17.416Z,10
2018-04-28T04:31:57.989Z,10
2018-04-28T04:32:38.484Z,15
2018-04-28T04:33:19.005Z,15
2018-04-28T04:33:59.537Z,15
2018-04-28T04:34:40.054Z,20
2018-04-28T04:35:20.586Z,20
2018-04-28T04:36:01.112Z,20
2018-04-28T04:36:41.636Z,20
2018-04-28T04:37:22.156Z,25
2018-04-28T04:38:02.681Z,25
2018-04-28T04:38:43.196Z,25
2018-04-28T04:39:23.717Z,30
2018-04-28T04:40:04.227Z,30
2018-04-28T04:40:44.758Z,30
2018-04-28T04:41:25.274Z,30
2018-04-28T04:42:05.799Z,35
2018-04-28T04:42:46.333Z,35
2018-04-28T04:43:26.860Z,35
2018-04-28T04:44:07.387Z,35
2018-04-28T04:44:47.906Z,35
2018-04-28T04:45:28.423Z,35
2018-04-28T04:46:08.943Z,35
2018-04-28T04:46:49.459Z,40
2018-04-28T04:47:29.978Z,40
2018-04-28T04:48:10.498Z,45
2018-04-28T04:48:51.019Z,45
2018-04-28T04:49:31.542Z,45
2018-04-28T04:50:12.063Z,45
2018-04-28T04:50:52.584Z,45
2018-04-28T04:51:33.105Z,45
2018-04-28T04:52:13.626Z,45
2018-04-28T04:52:54.140Z,45
2018-04-28T04:53:34.647Z,50
2018-04-28T04:54:15.166Z,50
2018-04-28T04:54:55.693Z,50
2018-04-28T04:55:36.218Z,45
2018-04-28T04:56:16.729Z,45
2018-04-28T04:56:57.249Z,50
2018-04-28T04:57:37.784Z,50
2018-04-28T04:58:18.290Z,50
2018-04-28T04:58:58.816Z,50
2018-04-28T04:59:39.346Z,50
2018-04-28T05:00:19.874Z,45
2018-04-28T05:01:00.392Z,50
2018-04-28T05:01:40.917Z,50
2018-04-28T05:02:21.439Z,55
2018-04-28T05:03:01.952Z,55
2018-04-28T05:03:42.474Z,55
2018-04-28T05:04:22.992Z,50
2018-04-28T05:05:03.528Z,50
2018-04-28T05:05:44.066Z,50
2018-04-28T05:06:24.574Z,50
2018-04-28T05:07:05.089Z,50
2018-04-28T05:07:45.591Z,50
2018-04-28T05:08:26.099Z,50
2018-04-28T05:09:06.612Z,50
2018-04-28T05:09:47.126Z,50
2018-04-28T05:10:27.654Z,50
2018-04-28T05:11:08.184Z,55
2018-04-28T05:11:48.705Z,55
2018-04-28T05:12:29.236Z,55
2018-04-28T05:13:09.772Z,60
2018-04-28T05:13:50.279Z,65
2018-04-28T05:14:30.805Z,65
2018-04-28T05:15:11.321Z,70
2018-04-28T05:15:51.834Z,70
2018-04-28T05:16:32.344Z,70
2018-04-28T05:17:12.854Z,70
2018-04-28T05:17:53.382Z,70
2018-04-28T05:18:33.910Z,70
2018-04-28T05:19:14.511Z,70
2018-04-28T05:19:54.950Z,70
2018-04-28T05:20:35.472Z,70
2018-04-28T05:21:15.990Z,75
2018-04-28T05:21:56.500Z,75
2018-04-28T05:22:37.019Z,85
2018-04-28T05:23:17.547Z,90
2018-04-28T05:23:58.067Z,90
2018-04-28T05:24:38.591Z,95
2018-04-28T05:25:19.112Z,95
2018-04-28T05:25:59.649Z,95
2018-04-28T05:26:40.158Z,90
2018-04-28T05:27:20.689Z,90
2018-04-28T05:28:01.230Z,95
2018-04-28T05:28:41.738Z,95
2018-04-28T05:29:22.254Z,95
2018-04-28T05:30:02.768Z,100
2018-04-28T05:30:43.295Z,105
2018-04-28T05:31:23.834Z,110
2018-04-28T05:32:04.352Z,115
2018-04-28T05:32:44.874Z,120
2018-04-28T05:33:26.187Z,120
2018-04-28T05:34:05.916Z,120
2018-04-28T05:34:46.442Z,125
2018-04-28T05:35:26.969Z,130
2018-04-28T05:36:07.586Z,120
2018-04-28T05:36:48.011Z,120
2018-04-28T05:37:28.532Z,120
2018-04-28T05:38:09.048Z,115
2018-04-28T05:38:49.565Z,120
2018-04-28T05:39:30.080Z,135
2018-04-28T05:40:10.612Z,145
2018-04-28T05:40:51.146Z,130
2018-04-28T05:41:31.671Z,145
2018-04-28T05:42:12.184Z,170
2018-04-28T05:42:52.700Z,175
2018-04-28T05:43:33.221Z,185
2018-04-28T05:44:13.725Z,195
2018-04-28T05:44:54.250Z,200
2018-04-28T05:45:34.773Z,200
2018-04-28T05:46:15.317Z,195
2018-04-28T05:46:55.816Z,185
2018-04-28T05:47:36.336Z,180
2018-04-28T05:48:16.915Z,180
2018-04-28T05:48:57.377Z,175
2018-04-28T05:49:37.890Z,185
2018-04-28T05:50:18.404Z,175
2018-04-28T05:50:58.916Z,160
2018-04-28T05:51:39.444Z,155
2018-04-28T05:52:19.966Z,150
2018-04-28T05:53:00.491Z,160
2018-04-28T05:53:41.008Z,155
2018-04-28T05:54:21.529Z,150
2018-04-28T05:55:02.067Z,145
2018-04-28T05:55:42.590Z,140
2018-04-28T05:56:23.102Z,140
2018-04-28T05:57:03.613Z,140
2018-04-28T05:57:44.190Z,140
2018-04-28T05:58:24.665Z,135
2018-04-28T05:59:05.195Z,135
2018-04-28T05:59:45.710Z,135
2018-04-28T06:00:26.245Z,120
2018-04-28T06:01:06.751Z,120
2018-04-28T06:01:47.271Z,115
2018-04-28T06:02:27.802Z,115
2018-04-28T06:03:08.393Z,120
2018-04-28T06:03:48.920Z,115
2018-04-28T06:04:29.442Z,110
2018-04-28T06:05:09.962Z,110
2018-04-28T06:05:50.479Z,105
2018-04-28T06:06:30.990Z,105
2018-04-28T06:07:11.530Z,120
2018-04-28T06:07:52.069Z,115
2018-04-28T06:08:32.605Z,110
2018-04-28T06:09:13.148Z,115
2018-04-28T06:09:53.655Z,120
2018-04-28T06:10:34.682Z,125
2018-04-28T06:11:15.193Z,130
2018-04-28T06:11:55.871Z,140
2018-04-28T06:12:36.400Z,135
2018-04-28T06:13:16.926Z,130
2018-04-28T06:13:57.463Z,120
2018-04-28T06:14:37.976Z,105
2018-04-28T06:15:18.505Z,100
2018-04-28T06:15:59.095Z,100
2018-04-28T06:16:39.567Z,105
2018-04-28T06:17:20.100Z,110
2018-04-28T06:18:00.619Z,120
2018-04-28T06:18:41.225Z,120
2018-04-28T06:19:21.760Z,115
2018-04-28T06:20:02.438Z,110
2018-04-28T06:20:42.918Z,115
2018-04-28T06:21:23.454Z,120
2018-04-28T06:22:03.972Z,125
2018-04-28T06:22:44.498Z,130
2018-04-28T06:23:25.029Z,135
2018-04-28T06:24:05.549Z,135
2018-04-28T06:24:46.070Z,135
2018-04-28T06:25:26.616Z,140
2018-04-28T06:26:07.158Z,140
2018-04-28T06:26:47.665Z,140
2018-04-28T06:27:28.184Z,155
2018-04-28T06:28:08.713Z,165
2018-04-28T06:28:49.229Z,170
2018-04-28T06:29:29.755Z,145
2018-04-28T06:30:10.284Z,150
2018-04-28T06:30:50.798Z,170
2018-04-28T06:31:31.321Z,175
2018-04-28T06:32:11.826Z,185
2018-04-28T06:32:52.343Z,185
2018-04-28T06:33:32.852Z,180
2018-04-28T06:34:13.356Z,175
2018-04-28T06:34:53.890Z,180
2018-04-28T06:35:34.403Z,175
2018-04-28T06:36:14.956Z,175
2018-04-28T06:36:55.468Z,180
2018-04-28T06:37:35.988Z,180
2018-04-28T06:38:16.514Z,180
2018-04-28T06:38:57.022Z,180
2018-04-28T06:39:37.541Z,180
2018-04-28T06:40:18.061Z,185
2018-04-28T06:40:58.578Z,185
2018-04-28T06:41:39.094Z,190
2018-04-28T06:42:19.639Z,190
2018-04-28T06:43:00.152Z,190
2018-04-28T06:43:40.670Z,190
2018-04-28T06:44:21.212Z,195
2018-04-28T06:45:01.716Z,205
2018-04-28T06:45:42.295Z,200
2018-04-28T06:46:22.814Z,205
2018-04-28T06:47:03.336Z,210
2018-04-28T06:47:43.850Z,205
2018-04-28T06:48:24.366Z,205
2018-04-28T06:49:04.882Z,210
2018-04-28T06:49:45.423Z,215
2018-04-28T06:50:25.945Z,215
2018-04-28T06:51:06.474Z,210
2018-04-28T06:51:46.979Z,205
2018-04-28T06:52:27.500Z,210
2018-04-28T06:53:08.031Z,215
2018-04-28T06:53:48.562Z,205
2018-04-28T06:54:29.097Z,210
2018-04-28T06:55:09.622Z,205
2018-04-28T06:55:50.150Z,200
2018-04-28T06:56:30.683Z,190
2018-04-28T06:57:11.199Z,195
2018-04-28T06:57:51.720Z,205
2018-04-28T06:58:32.315Z,205
2018-04-28T06:59:12.747Z,215
2018-04-28T06:59:53.261Z,210
2018-04-28T07:00:33.774Z,210
2018-04-28T07:01:14.293Z,215
2018-04-28T07:01:54.813Z,215
2018-04-28T07:02:35.334Z,215
2018-04-28T07:03:15.866Z,210
2018-04-28T07:03:56.386Z,210
2018-04-28T07:04:37.236Z,210
2018-04-28T07:05:17.663Z,205
2018-04-28T07:05:58.185Z,215
2018-04-28T07:06:38.700Z,170
2018-04-28T07:07:19.235Z,175
2018-04-28T07:07:59.763Z,215
2018-04-28T07:08:40.298Z,215
2018-04-28T07:09:20.817Z,220
2018-04-28T07:10:01.357Z,210
2018-04-28T07:10:41.892Z,215
2018-04-28T07:11:22.404Z,160
2018-04-28T07:12:02.926Z,140
2018-04-28T07:12:43.461Z,140
2018-04-28T07:13:23.985Z,145
2018-04-28T07:14:04.503Z,150
2018-04-28T07:14:45.025Z,180
2018-04-28T07:15:25.542Z,170
2018-04-28T07:16:06.107Z,180
2018-04-28T07:16:46.665Z,235
2018-04-28T07:17:27.206Z,190
2018-04-28T07:18:07.734Z,190
2018-04-28T07:18:48.370Z,230
2018-04-28T07:19:28.843Z,250
2018-04-28T07:20:09.367Z,225
2018-04-28T07:20:49.929Z,245
2018-04-28T07:21:30.465Z,245
2018-04-28T07:22:10.995Z,235
2018-04-28T07:22:51.546Z,225
2018-04-28T07:23:32.046Z,225
2018-04-28T07:24:12.573Z,220
2018-04-28T07:24:53.099Z,180
2018-04-28T07:25:33.641Z,180
2018-04-28T07:26:14.175Z,210
2018-04-28T07:26:54.707Z,220
2018-04-28T07:27:35.350Z,160
2018-04-28T07:28:15.799Z,150
2018-04-28T07:28:56.325Z,150
2018-04-28T07:29:36.908Z,140
2018-04-28T07:30:17.432Z,135
2018-04-28T07:30:57.944Z,135
2018-04-28T07:31:38.461Z,130
2018-04-28T07:32:18.991Z,130
2018-04-28T07:32:59.520Z,140
2018-04-28T07:33:40.036Z,215
2018-04-28T07:34:20.548Z,215
2018-04-28T07:35:01.082Z,225
2018-04-28T07:35:41.603Z,160
2018-04-28T07:36:22.129Z,160
2018-04-28T07:37:02.859Z,155
2018-04-28T07:37:43.333Z,215
2018-04-28T07:38:23.862Z,165
2018-04-28T07:39:04.390Z,150
2018-04-28T07:39:45.072Z,145
2018-04-28T07:40:25.583Z,145
2018-04-28T07:41:06.097Z,155
2018-04-28T07:41:46.610Z,160
2018-04-28T07:42:27.140Z,180
2018-04-28T07:43:07.680Z,180
2018-04-28T07:43:48.214Z,185
2018-04-28T07:44:28.744Z,200
2018-04-28T07:45:09.340Z,210
2018-04-28T07:45:49.880Z,220
2018-04-28T07:46:30.423Z,220
2018-04-28T07:47:10.938Z,220
2018-04-28T07:47:51.487Z,215
2018-04-28T07:48:32.097Z,210
2018-04-28T07:49:12.565Z,205
2018-04-28T07:49:53.069Z,200
2018-04-28T07:50:33.586Z,190
2018-04-28T07:51:14.123Z,185
2018-04-28T07:51:54.651Z,185
2018-04-28T07:52:35.165Z,180
2018-04-28T07:53:15.687Z,180
2018-04-28T07:53:56.222Z,170
2018-04-28T07:54:36.722Z,170
2018-04-28T07:55:17.235Z,175
2018-04-28T07:55:57.811Z,180
2018-04-28T07:56:38.363Z,185
2018-04-28T07:57:18.902Z,195
2018-04-28T07:57:59.426Z,205
2018-04-28T07:58:39.933Z,210
2018-04-28T07:59:20.475Z,205
2018-04-28T08:00:01.011Z,200
2018-04-28T08:00:41.538Z,195
2018-04-28T08:01:22.069Z,195
2018-04-28T08:02:02.582Z,195
2018-04-28T08:02:43.075Z,185
2018-04-28T08:03:23.612Z,180
2018-04-28T08:04:04.129Z,175
2018-04-28T08:04:44.660Z,175
2018-04-28T08:05:25.141Z,175
2018-04-28T08:06:05.662Z,170
2018-04-28T08:06:46.217Z,165
2018-04-28T08:07:26.808Z,160
2018-04-28T08:08:07.240Z,155
2018-04-28T08:08:47.783Z,160
2018-04-28T08:09:28.275Z,155
2018-04-28T08:10:08.789Z,150
2018-04-28T08:10:49.288Z,145
2018-04-28T08:11:29.824Z,145
2018-04-28T08:12:10.318Z,145
2018-04-28T08:12:50.891Z,145
2018-04-28T08:13:31.416Z,155
2018-04-28T08:14:11.962Z,155
2018-04-28T08:14:52.525Z,165
2018-04-28T08:15:33.029Z,170
2018-04-28T08:16:13.554Z,180
2018-04-28T08:16:54.081Z,185
2018-04-28T08:17:34.609Z,190
2018-04-28T08:18:15.120Z,190
2018-04-28T08:18:55.657Z,195
2018-04-28T08:19:36.188Z,195
2018-04-28T08:21:49.487Z,205
2018-04-28T08:22:30.127Z,190
2018-04-28T08:23:10.640Z,180
2018-04-28T08:23:51.150Z,180
2018-04-28T08:24:31.677Z,175
2018-04-28T08:25:12.179Z,170
2018-04-28T08:25:52.732Z,180
2018-04-28T08:26:33.325Z,170
2018-04-28T08:27:13.766Z,170
2018-04-28T08:27:54.296Z,175
2018-04-28T08:28:34.833Z,165
2018-04-28T08:29:15.354Z,160
2018-04-28T08:29:55.876Z,160
2018-04-28T08:30:36.396Z,150
2018-04-28T08:31:16.908Z,155
2018-04-28T08:31:57.434Z,135
2018-04-28T08:32:37.980Z,135
2018-04-28T08:33:18.635Z,130
2018-04-28T08:33:59.162Z,140
2018-04-28T08:34:39.686Z,145
2018-04-28T08:35:20.180Z,135
2018-04-28T08:36:00.729Z,155
2018-04-28T08:36:41.235Z,155
2018-04-28T08:37:21.901Z,155
2018-04-28T08:38:02.282Z,145
2018-04-28T08:38:42.807Z,140
2018-04-28T08:39:23.330Z,140
2018-04-28T08:40:03.833Z,135
2018-04-28T08:40:44.360Z,135
2018-04-28T08:41:24.885Z,135
2018-04-28T08:42:05.386Z,135
2018-04-28T08:42:45.903Z,130
2018-04-28T08:43:26.433Z,130
2018-04-28T08:44:06.943Z,135
2018-04-28T08:44:47.437Z,130
2018-04-28T08:45:28.009Z,135
2018-04-28T08:46:08.471Z,135
2018-04-28T08:46:49.002Z,135
2018-04-28T08:47:29.517Z,135
2018-04-28T08:48:10.295Z,135
2018-04-28T08:48:50.591Z,130
2018-04-28T08:49:31.114Z,130
2018-04-28T08:50:11.679Z,130
2018-04-28T08:50:52.139Z,135
2018-04-28T08:51:32.675Z,135
2018-04-28T08:52:13.179Z,130
2018-04-28T08:52:53.716Z,125
2018-04-28T08:53:34.232Z,130
2018-04-28T08:54:14.782Z,130
2018-04-28T08:54:55.293Z,135
2018-04-28T08:55:35.811Z,115
2018-04-28T08:56:16.432Z,110
2018-04-28T08:56:56.890Z,135
2018-04-28T08:57:37.369Z,135
2018-04-28T08:58:17.922Z,130
2018-04-28T08:58:58.443Z,135
2018-04-28T08:59:38.972Z,125
2018-04-28T09:00:19.496Z,115
2018-04-28T09:01:00.010Z,110
2018-04-28T09:01:40.535Z,105
2018-04-28T09:02:21.036Z,105
2018-04-28T09:03:01.576Z,110
2018-04-28T09:03:42.167Z,105
2018-04-28T09:04:22.646Z,105
2018-04-28T09:05:03.199Z,105
2018-04-28T09:05:43.686Z,105
2018-04-28T09:06:24.217Z,105
2018-04-28T09:07:04.727Z,110
2018-04-28T09:07:45.244Z,110
2018-04-28T09:08:25.752Z,115
2018-04-28T09:09:06.259Z,115
2018-04-28T09:09:46.777Z,120
2018-04-28T09:10:27.328Z,120
2018-04-28T09:11:07.854Z,125
2018-04-28T09:11:48.385Z,125
2018-04-28T09:12:28.903Z,130
2018-04-28T09:13:09.542Z,145
2018-04-28T09:13:50.043Z,145
2018-04-28T09:14:30.560Z,155
2018-04-28T09:15:11.080Z,160
2018-04-28T09:15:51.622Z,165
2018-04-28T09:16:32.177Z,170
2018-04-28T09:17:12.754Z,170
2018-04-28T09:17:53.380Z,170
2018-04-28T09:18:33.889Z,165
2018-04-28T09:19:14.427Z,175
2018-04-28T09:19:54.943Z,170
2018-04-28T09:20:35.491Z,175
2018-04-28T09:21:16.014Z,185
2018-04-28T09:21:56.544Z,200
2018-04-28T09:22:37.048Z,205
2018-04-28T09:23:17.569Z,210
2018-04-28T09:23:58.093Z,215
2018-04-28T09:24:38.600Z,220
2018-04-28T09:25:19.125Z,210
2018-04-28T09:25:59.640Z,210
2018-04-28T09:26:40.159Z,205
2018-04-28T09:27:20.686Z,205
2018-04-28T09:28:01.220Z,215
2018-04-28T09:28:41.734Z,220
2018-04-28T09:29:22.269Z,225
2018-04-28T09:30:02.778Z,220
2018-04-28T09:30:43.299Z,220
2018-04-28T09:31:23.826Z,215
2018-04-28T09:32:04.344Z,215
2018-04-28T09:32:44.864Z,215
2018-04-28T09:33:25.400Z,210
2018-04-28T09:34:05.914Z,210
2018-04-28T09:34:46.431Z,220
2018-04-28T09:35:26.961Z,225
2018-04-28T09:36:07.481Z,225
2018-04-28T09:36:48.052Z,225
2018-04-28T09:37:28.572Z,230
2018-04-28T09:38:09.103Z,225
2018-04-28T09:38:49.621Z,220
2018-04-28T09:39:30.134Z,215
2018-04-28T09:40:10.665Z,210